Time;durP1;ratioP1;P1;durP2;ratioP2;P2;SDS_P1;SDS_P2;PMS_P1;PMS_P2;Temp;Humidity;BMP_temperature;BMP_pressure;BME280_temperature;BME280_humidity;BME280_pressure;Samples;Min_cycle;Max_cycle;Signal;HPM_P1;HPM_P2
2022/01/27 00:02:28;;;;;;;42.80;19.40;;;3.60;99.90;;;;;;4989588;28;20204;-81
2022/01/27 00:05:08;;;;;;;43.03;20.92;;;3.60;99.90;;;;;;5019722;28;20228;-81
2022/01/27 00:07:35;;;;;;;42.70;21.42;;;3.70;99.90;;;;;;5020029;28;20204;-81
2022/01/27 00:10:13;;;;;;;41.08;21.83;;;3.80;99.90;;;;;;5022825;28;20228;-83
2022/01/27 00:12:41;;;;;;;49.83;21.13;;;3.70;99.90;;;;;;5026560;28;20214;-81
2022/01/27 00:15:12;;;;;;;41.33;19.85;;;3.70;99.90;;;;;;5036670;28;20212;-81
2022/01/27 00:17:43;;;;;;;38.90;18.30;;;3.60;99.90;;;;;;5022930;28;20271;-82
2022/01/27 00:20:12;;;;;;;48.45;20.48;;;3.60;99.90;;;;;;5023323;28;20204;-81
2022/01/27 00:22:38;;;;;;;47.50;20.63;;;3.60;99.90;;;;;;5036497;28;20218;-80
2022/01/27 00:25:07;;;;;;;42.92;20.15;;;3.60;99.90;;;;;;5028311;28;20247;-79
2022/01/27 00:27:34;;;;;;;42.42;20.80;;;3.50;99.90;;;;;;5020226;28;20205;-82
2022/01/27 00:30:03;;;;;;;45.03;20.63;;;3.50;99.90;;;;;;5017627;28;20251;-81
2022/01/27 00:32:31;;;;;;;41.80;21.25;;;3.50;99.90;;;;;;5019373;28;20211;-81
2022/01/27 00:34:58;;;;;;;45.53;21.00;;;3.40;99.90;;;;;;5021662;28;20643;-79
2022/01/27 00:37:25;;;;;;;42.17;19.70;;;3.50;99.90;;;;;;5026214;28;20631;-79
2022/01/27 00:39:51;;;;;;;43.10;20.83;;;3.50;99.90;;;;;;5024778;28;20201;-79
2022/01/27 00:42:18;;;;;;;43.05;21.00;;;3.50;99.90;;;;;;5023532;28;20208;-78
2022/01/27 00:44:45;;;;;;;32.83;17.67;;;3.60;99.90;;;;;;5029445;22;970471;-82
2022/01/27 00:47:11;;;;;;;36.72;20.30;;;3.50;99.90;;;;;;5020210;28;20194;-83
2022/01/27 00:49:39;;;;;;;33.85;18.10;;;3.20;99.90;;;;;;5020984;28;20220;-83
2022/01/27 00:52:10;;;;;;;36.50;17.75;;;3.50;99.90;;;;;;5022302;28;20226;-83
2022/01/27 00:54:37;;;;;;;33.95;17.83;;;3.80;99.90;;;;;;5022635;28;20616;-84
2022/01/27 00:57:09;;;;;;;35.28;17.58;;;3.50;99.90;;;;;;5019802;28;20209;-83
2022/01/27 00:59:46;;;;;;;43.08;19.98;;;3.50;99.90;;;;;;5019295;28;20208;-83
2022/01/27 01:02:18;;;;;;;42.75;19.50;;;3.60;99.90;;;;;;5019800;28;20191;-83
2022/01/27 01:04:56;;;;;;;36.58;18.23;;;3.60;99.90;;;;;;5019417;28;20288;-83
2022/01/27 01:07:30;;;;;;;38.90;18.05;;;3.70;99.90;;;;;;5021369;28;20195;-83
2022/01/27 01:10:38;;;;;;;34.47;18.83;;;3.60;99.90;;;;;;5025166;28;20227;-82
2022/01/27 01:15:45;;;;;;;28.35;16.73;;;3.60;99.90;;;;;;5009127;28;20238;-83
2022/01/27 01:18:25;;;;;;;34.00;16.20;;;3.60;99.90;;;;;;5040922;28;20227;-82
2022/01/27 01:21:21;;;;;;;37.03;17.52;;;3.60;99.90;;;;;;5040912;28;20204;-83
2022/01/27 01:29:40;;;;;;;30.48;16.38;;;3.60;99.90;;;;;;5034160;28;20212;-83
2022/01/27 01:32:18;;;;;;;40.10;16.00;;;3.60;99.90;;;;;;5025640;28;20259;-82
2022/01/27 01:34:48;;;;;;;32.03;15.75;;;;;;;;;;5026534;28;20239;-83
2022/01/27 01:40:17;;;;;;;31.95;15.07;;;3.70;99.90;;;;;;5023862;28;20216;-82
2022/01/27 01:42:45;;;;;;;26.85;14.55;;;3.70;99.90;;;;;;5022771;28;20681;-82
2022/01/27 01:45:14;;;;;;;34.60;16.90;;;3.50;99.90;;;;;;5023283;28;20262;-83
2022/01/27 01:47:41;;;;;;;25.25;14.20;;;3.70;99.90;;;;;;5024322;28;20235;-83
2022/01/27 01:50:11;;;;;;;29.08;15.52;;;3.80;99.90;;;;;;5023484;28;20224;-83
2022/01/27 01:52:40;;;;;;;27.73;14.95;;;3.70;99.90;;;;;;5022983;28;20200;-82
2022/01/27 01:55:09;;;;;;;33.17;16.27;;;3.70;99.90;;;;;;5023259;28;20264;-82
2022/01/27 01:57:36;;;;;;;29.40;15.93;;;3.70;99.90;;;;;;5022483;28;20204;-83
2022/01/27 02:00:07;;;;;;;32.10;15.38;;;3.70;99.90;;;;;;5022286;28;20242;-83
2022/01/27 02:02:33;;;;;;;29.17;15.35;;;3.70;99.90;;;;;;5023274;28;20188;-83
2022/01/27 02:05:02;;;;;;;24.60;15.75;;;3.60;99.90;;;;;;5025502;28;20290;-83
2022/01/27 02:07:49;;;;;;;29.10;15.02;;;3.70;99.90;;;;;;5027375;28;20204;-83
2022/01/27 02:10:33;;;;;;;23.98;14.18;;;3.60;99.90;;;;;;5033872;28;20208;-83
2022/01/27 02:18:29;;;;;;;24.15;14.77;;;3.70;99.90;;;;;;5029189;28;20211;-83
2022/01/27 02:20:57;;;;;;;26.95;13.85;;;3.80;99.90;;;;;;5029534;28;20180;-83
2022/01/27 02:23:24;;;;;;;26.27;13.25;;;3.70;99.90;;;;;;5035843;28;20255;-82
2022/01/27 02:25:53;;;;;;;25.13;13.27;;;3.80;99.90;;;;;;5033018;28;20225;-82
2022/01/27 02:28:20;;;;;;;25.60;12.85;;;3.80;99.90;;;;;;5032630;28;20235;-83
2022/01/27 02:30:47;;;;;;;22.73;12.40;;;;;;;;;;5031432;28;20227;-83
2022/01/27 02:33:28;;;;;;;25.42;14.85;;;3.70;99.90;;;;;;5029931;28;20204;-83
2022/01/27 02:35:56;;;;;;;27.52;14.55;;;3.80;99.90;;;;;;5029395;28;20282;-83
2022/01/27 02:38:23;;;;;;;26.25;14.05;;;3.80;99.90;;;;;;5028610;28;20208;-83
2022/01/27 02:40:55;;;;;;;23.10;13.65;;;3.80;99.90;;;;;;5028331;28;20231;-82
2022/01/27 02:43:24;;;;;;;24.92;13.60;;;3.80;99.90;;;;;;5025642;28;20220;-82
2022/01/27 02:45:59;;;;;;;22.25;13.15;;;3.90;99.90;;;;;;5029055;28;20232;-83
2022/01/27 02:48:26;;;;;;;24.00;13.60;;;3.90;99.90;;;;;;5025724;28;20188;-83
2022/01/27 02:50:53;;;;;;;24.70;13.67;;;3.70;99.90;;;;;;5025718;28;20511;-82
2022/01/27 02:53:21;;;;;;;25.15;15.00;;;3.00;99.90;;;;;;5023049;28;20446;-82
2022/01/27 02:55:47;;;;;;;23.08;13.95;;;3.80;99.90;;;;;;5022402;28;20239;-83
2022/01/27 02:58:15;;;;;;;24.33;13.70;;;3.90;99.90;;;;;;5020416;28;20204;-83
2022/01/27 03:00:42;;;;;;;26.45;13.82;;;3.90;99.90;;;;;;5020415;28;20290;-82
2022/01/27 03:03:08;;;;;;;27.63;13.35;;;3.90;99.90;;;;;;5021417;28;20204;-82
2022/01/27 03:05:35;;;;;;;27.15;15.38;;;4.00;99.90;;;;;;5030774;28;20255;-83
2022/01/27 03:08:02;;;;;;;29.25;13.15;;;3.90;99.90;;;;;;5034298;28;20212;-83
2022/01/27 03:10:34;;;;;;;23.25;13.20;;;3.90;99.90;;;;;;5033936;28;20234;-81
2022/01/27 03:13:01;;;;;;;23.02;14.45;;;3.90;99.90;;;;;;5034176;28;20311;-81
2022/01/27 03:15:28;;;;;;;21.52;13.20;;;3.90;99.90;;;;;;5033209;28;20287;-82
2022/01/27 03:17:55;;;;;;;29.02;14.70;;;3.90;99.90;;;;;;5034499;28;20208;-81
2022/01/27 03:20:22;;;;;;;26.98;14.48;;;3.90;99.90;;;;;;5038400;28;20235;-82
2022/01/27 03:22:48;;;;;;;23.80;14.27;;;3.90;99.90;;;;;;5031302;28;20204;-81
2022/01/27 03:25:15;;;;;;;27.60;14.60;;;3.70;99.90;;;;;;5024816;28;20224;-82
2022/01/27 03:27:47;;;;;;;26.52;14.98;;;3.80;99.90;;;;;;5023095;28;20204;-82
2022/01/27 03:30:15;;;;;;;28.92;15.52;;;3.80;99.90;;;;;;5021702;28;20219;-82
2022/01/27 03:32:42;;;;;;;30.20;14.55;;;3.70;99.90;;;;;;5021905;28;20547;-82
2022/01/27 03:35:09;;;;;;;31.75;15.77;;;3.70;99.90;;;;;;5021980;28;20228;-82
2022/01/27 03:37:36;;;;;;;27.83;16.25;;;3.70;99.90;;;;;;5022092;28;20200;-82
2022/01/27 03:40:03;;;;;;;27.77;16.15;;;3.70;99.90;;;;;;5024518;28;20200;-82
2022/01/27 03:42:30;;;;;;;29.38;15.35;;;3.70;99.90;;;;;;5030025;28;20215;-83
2022/01/27 03:44:58;;;;;;;28.27;15.80;;;3.70;99.90;;;;;;5035216;28;20216;-81
2022/01/27 03:47:25;;;;;;;26.08;15.90;;;3.70;99.90;;;;;;5036548;28;20192;-81
2022/01/27 03:49:51;;;;;;;30.13;15.70;;;3.70;99.90;;;;;;5035718;28;20235;-80
2022/01/27 03:52:18;;;;;;;27.20;15.40;;;3.70;99.90;;;;;;5034414;28;20247;-81
2022/01/27 03:54:45;;;;;;;29.17;14.77;;;3.70;99.90;;;;;;5035082;28;20251;-83
2022/01/27 03:57:12;;;;;;;26.17;14.95;;;3.70;99.90;;;;;;5035889;28;20233;-82
2022/01/27 03:59:38;;;;;;;27.92;14.55;;;3.80;99.90;;;;;;5034960;28;20205;-83
2022/01/27 04:02:06;;;;;;;31.02;16.08;;;3.80;99.90;;;;;;5035629;28;20201;-82
2022/01/27 04:04:33;;;;;;;27.17;14.23;;;3.40;99.90;;;;;;5035843;28;20215;-82
2022/01/27 04:07:02;;;;;;;26.25;15.23;;;3.70;99.90;;;;;;5035276;28;20204;-82
2022/01/27 04:09:29;;;;;;;26.55;14.00;;;3.70;99.90;;;;;;5034110;28;20208;-82
2022/01/27 04:11:55;;;;;;;22.30;12.85;;;3.60;99.90;;;;;;5030460;28;20706;-82
2022/01/27 04:14:22;;;;;;;25.55;13.50;;;;;;;;;;5028789;28;20208;-84
2022/01/27 04:16:49;;;;;;;24.98;14.68;;;4.30;99.90;;;;;;5026645;28;20231;-82
2022/01/27 04:19:17;;;;;;;28.23;15.82;;;3.80;99.90;;;;;;5028156;28;20204;-82
2022/01/27 04:21:43;;;;;;;21.75;12.25;;;3.80;99.90;;;;;;5023930;28;20204;-81
2022/01/27 04:24:11;;;;;;;23.50;14.02;;;3.80;99.90;;;;;;5023388;28;20204;-82
2022/01/27 04:26:43;;;;;;;21.63;13.45;;;3.90;99.90;;;;;;5023822;28;20224;-83
2022/01/27 04:29:10;;;;;;;20.50;11.27;;;3.90;99.90;;;;;;5025973;28;20188;-83
2022/01/27 04:31:38;;;;;;;20.58;12.85;;;3.90;99.90;;;;;;5025796;28;20721;-83
2022/01/27 04:34:05;;;;;;;19.98;11.90;;;4.20;99.90;;;;;;5035497;28;20211;-81
2022/01/27 04:36:35;;;;;;;21.65;13.35;;;4.00;99.90;;;;;;5037011;28;20494;-83
2022/01/27 04:39:11;;;;;;;19.27;12.00;;;4.00;99.90;;;;;;5038635;28;20242;-83
2022/01/27 04:41:44;;;;;;;22.00;12.00;;;4.10;99.90;;;;;;5038924;28;20176;-84
2022/01/27 04:44:19;;;;;;;14.38;10.30;;;4.20;99.90;;;;;;5038659;28;20192;-83
2022/01/27 04:46:51;;;;;;;14.73;10.25;;;4.20;99.90;;;;;;5038551;28;20228;-83
2022/01/27 04:49:18;;;;;;;16.45;10.73;;;4.20;99.90;;;;;;5039491;28;20169;-82
2022/01/27 04:51:46;;;;;;;18.13;10.82;;;4.30;99.90;;;;;;5041944;28;20228;-81
2022/01/27 04:54:18;;;;;;;13.00;10.30;;;4.30;99.90;;;;;;5041323;28;20207;-82
2022/01/27 04:56:44;;;;;;;12.57;8.88;;;4.30;99.90;;;;;;5039732;28;20220;-83
2022/01/27 04:59:16;;;;;;;13.65;10.05;;;4.30;99.90;;;;;;5027138;28;20442;-83
2022/01/27 05:01:48;;;;;;;15.32;10.20;;;4.30;99.90;;;;;;5026909;28;20185;-83
2022/01/27 05:04:17;;;;;;;15.13;10.75;;;4.30;99.90;;;;;;5025639;28;20243;-82
2022/01/27 05:06:48;;;;;;;12.73;9.60;;;4.30;99.90;;;;;;5024465;28;20281;-82
2022/01/27 05:09:18;;;;;;;10.85;9.75;;;4.30;99.90;;;;;;5024930;28;20188;-82
2022/01/27 05:11:50;;;;;;;15.13;10.32;;;4.30;99.90;;;;;;5024795;28;20247;-82
2022/01/27 05:14:19;;;;;;;10.90;8.80;;;4.30;99.90;;;;;;5025598;28;20258;-83
2022/01/27 05:16:46;;;;;;;11.60;9.50;;;4.40;99.90;;;;;;5025246;28;20220;-82
2022/01/27 05:19:13;;;;;;;11.63;9.13;;;4.40;99.90;;;;;;5024978;28;20625;-83
2022/01/27 05:21:43;;;;;;;11.68;8.05;;;4.40;99.90;;;;;;5024206;28;20560;-83
2022/01/27 05:24:12;;;;;;;13.25;9.68;;;4.40;99.90;;;;;;5023468;28;20753;-82
2022/01/27 05:26:39;;;;;;;12.48;8.52;;;4.40;99.90;;;;;;5025225;28;20224;-82
2022/01/27 05:29:08;;;;;;;10.60;9.50;;;4.40;99.90;;;;;;5028084;28;20204;-82
2022/01/27 05:31:36;;;;;;;13.77;9.10;;;4.40;99.90;;;;;;5025276;28;20228;-82
2022/01/27 05:34:03;;;;;;;15.40;9.85;;;4.40;99.90;;;;;;5034379;28;20247;-82
2022/01/27 05:36:29;;;;;;;9.95;8.20;;;4.40;99.90;;;;;;5040333;28;20227;-81
2022/01/27 05:38:56;;;;;;;13.38;9.40;;;4.40;99.90;;;;;;5041235;28;20208;-81
2022/01/27 05:41:24;;;;;;;15.07;9.63;;;4.50;99.90;;;;;;5024427;28;20240;-81
2022/01/27 05:43:51;;;;;;;16.35;9.30;;;4.40;99.90;;;;;;5041490;28;20180;-82
2022/01/27 05:46:18;;;;;;;12.90;10.10;;;4.40;99.90;;;;;;5040179;28;20255;-81
2022/01/27 05:48:44;;;;;;;12.43;9.20;;;4.40;99.90;;;;;;5040429;28;20447;-81
2022/01/27 05:51:12;;;;;;;12.90;9.38;;;4.40;99.90;;;;;;5031952;28;20455;-82
2022/01/27 05:53:39;;;;;;;15.60;10.73;;;4.40;99.90;;;;;;5024841;28;20204;-83
2022/01/27 05:56:06;;;;;;;15.30;10.40;;;4.40;99.90;;;;;;5022945;28;20224;-82
2022/01/27 05:58:34;;;;;;;14.77;11.00;;;4.40;99.90;;;;;;5034277;28;20255;-82
2022/01/27 06:01:01;;;;;;;13.40;9.57;;;4.40;99.90;;;;;;5036516;28;20188;-82
2022/01/27 06:03:27;;;;;;;15.70;10.85;;;4.40;99.90;;;;;;5037679;28;20211;-82
2022/01/27 06:05:54;;;;;;;14.45;10.82;;;4.40;99.90;;;;;;5026180;28;20247;-82
2022/01/27 06:08:21;;;;;;;15.35;10.50;;;4.40;99.90;;;;;;5023668;28;20207;-82
2022/01/27 06:10:47;;;;;;;16.23;10.05;;;4.40;99.90;;;;;;5023037;28;20215;-82
2022/01/27 06:13:14;;;;;;;11.77;10.15;;;4.30;99.90;;;;;;5024498;28;20204;-82
2022/01/27 06:15:42;;;;;;;14.95;10.93;;;4.20;99.90;;;;;;5023075;28;20706;-82
2022/01/27 06:18:09;;;;;;;16.60;11.18;;;4.20;99.90;;;;;;5022350;28;20578;-83
2022/01/27 06:20:37;;;;;;;12.85;10.77;;;4.20;99.90;;;;;;5022405;28;20211;-82
2022/01/27 06:23:04;;;;;;;15.85;12.60;;;4.20;99.90;;;;;;5022058;28;20283;-83
2022/01/27 06:25:31;;;;;;;16.55;11.90;;;4.20;99.90;;;;;;5022122;28;20571;-81
2022/01/27 06:27:58;;;;;;;15.07;11.63;;;4.20;99.90;;;;;;5022145;28;20685;-81
2022/01/27 06:30:24;;;;;;;18.58;13.27;;;4.50;99.90;;;;;;5023632;28;20208;-82
2022/01/27 06:32:52;;;;;;;16.20;11.60;;;4.30;99.90;;;;;;5027294;28;20228;-81
2022/01/27 06:35:19;;;;;;;18.60;12.70;;;4.20;99.90;;;;;;5028263;28;20258;-82
2022/01/27 06:37:47;;;;;;;17.13;11.80;;;4.20;99.90;;;;;;5034035;28;20208;-82
2022/01/27 06:40:16;;;;;;;18.63;11.45;;;4.10;99.90;;;;;;5035978;28;20200;-82
2022/01/27 06:42:43;;;;;;;19.70;12.35;;;4.30;99.90;;;;;;5034863;28;20197;-82
2022/01/27 06:45:11;;;;;;;19.58;12.95;;;4.20;99.90;;;;;;5054683;22;20236;-80
2022/01/27 06:47:38;;;;;;;17.67;13.88;;;4.20;99.90;;;;;;5024434;28;20706;-80
2022/01/27 06:50:06;;;;;;;16.55;11.70;;;4.20;99.90;;;;;;5024967;28;20270;-80
2022/01/27 06:52:34;;;;;;;24.45;13.93;;;4.20;99.90;;;;;;5031985;28;20216;-79
2022/01/27 06:55:02;;;;;;;23.20;14.23;;;4.20;99.90;;;;;;5033521;28;20570;-80
2022/01/27 06:57:29;;;;;;;24.10;13.85;;;4.10;99.90;;;;;;5032618;28;20268;-79
2022/01/27 06:59:55;;;;;;;24.70;14.63;;;4.10;99.90;;;;;;5033092;28;20208;-81
2022/01/27 07:02:22;;;;;;;27.23;17.08;;;4.10;99.90;;;;;;5034292;28;20208;-79
2022/01/27 07:04:49;;;;;;;23.50;14.13;;;3.90;99.90;;;;;;5030603;28;20204;-79
2022/01/27 07:07:17;;;;;;;22.00;15.10;;;4.10;99.90;;;;;;5027294;28;20287;-79
2022/01/27 07:09:44;;;;;;;23.60;15.32;;;4.10;99.90;;;;;;5036124;28;20284;-81
2022/01/27 07:12:11;;;;;;;29.13;16.75;;;4.10;99.90;;;;;;5024243;28;20263;-82
2022/01/27 07:14:38;;;;;;;23.80;16.02;;;3.90;99.90;;;;;;5021290;28;20212;-82
2022/01/27 07:17:04;;;;;;;29.13;17.75;;;4.10;99.90;;;;;;5019786;28;20211;-80
2022/01/27 07:19:31;;;;;;;34.55;19.55;;;4.10;99.90;;;;;;5020447;28;20205;-82
2022/01/27 07:21:57;;;;;;;32.78;20.05;;;3.90;99.90;;;;;;5023413;28;20208;-81
2022/01/27 07:24:25;;;;;;;28.63;20.58;;;4.10;99.90;;;;;;5022745;28;20201;-81
2022/01/27 07:26:52;;;;;;;35.83;21.88;;;4.20;99.90;;;;;;5021902;28;20228;-83
2022/01/27 07:29:20;;;;;;;34.33;22.02;;;4.10;99.90;;;;;;5020758;28;20208;-82
2022/01/27 07:31:46;;;;;;;39.35;22.52;;;4.00;99.90;;;;;;5019853;28;20279;-82
2022/01/27 07:34:13;;;;;;;34.08;19.90;;;4.10;99.90;;;;;;5018689;28;20716;-82
2022/01/27 07:36:40;;;;;;;39.75;20.85;;;4.10;99.90;;;;;;5019203;28;20269;-80
2022/01/27 07:39:12;;;;;;;41.30;22.85;;;4.00;99.90;;;;;;5022472;28;20276;-82
2022/01/27 07:41:40;;;;;;;37.88;22.33;;;4.00;99.90;;;;;;5022152;28;20189;-81
2022/01/27 07:44:07;;;;;;;31.00;19.42;;;4.10;99.90;;;;;;5018566;28;20227;-82
2022/01/27 07:46:34;;;;;;;33.35;18.60;;;4.10;99.90;;;;;;5019914;28;20232;-81
2022/01/27 07:49:00;;;;;;;31.73;19.83;;;4.10;99.90;;;;;;5019785;28;20204;-81
2022/01/27 07:51:27;;;;;;;31.17;18.83;;;4.10;99.90;;;;;;5019636;28;20220;-82
2022/01/27 07:53:53;;;;;;;32.20;19.13;;;4.10;99.90;;;;;;5020660;28;20710;-80
2022/01/27 07:56:20;;;;;;;39.10;20.98;;;4.10;99.90;;;;;;5019404;28;20255;-81
2022/01/27 07:58:48;;;;;;;33.65;20.05;;;4.20;99.90;;;;;;5019338;28;20208;-83
2022/01/27 08:01:14;;;;;;;34.65;22.45;;;4.20;99.90;;;;;;5020224;28;20250;-82
2022/01/27 08:03:41;;;;;;;42.63;22.52;;;4.10;99.90;;;;;;5018498;28;20683;-82
2022/01/27 08:06:08;;;;;;;37.28;22.10;;;4.10;99.90;;;;;;5022570;28;20252;-81
2022/01/27 08:08:35;;;;;;;39.63;22.70;;;4.00;99.90;;;;;;5021473;28;20236;-82
2022/01/27 08:11:02;;;;;;;38.25;23.05;;;4.20;99.90;;;;;;5020741;28;20208;-82
2022/01/27 08:13:29;;;;;;;41.80;22.48;;;4.10;99.90;;;;;;5022186;28;20232;-82
2022/01/27 08:15:57;;;;;;;40.08;23.70;;;3.90;99.90;;;;;;5021385;28;20238;-83
2022/01/27 08:18:23;;;;;;;38.90;24.35;;;4.10;99.90;;;;;;5021985;28;20208;-81
2022/01/27 08:20:50;;;;;;;31.90;20.67;;;4.10;99.90;;;;;;5019220;28;20215;-82
2022/01/27 08:23:17;;;;;;;36.55;20.70;;;4.20;99.90;;;;;;5019569;28;20227;-82
2022/01/27 08:25:48;;;;;;;35.80;21.38;;;4.20;99.90;;;;;;5023250;28;20232;-82
2022/01/27 08:28:22;;;;;;;40.65;21.48;;;4.20;99.90;;;;;;5024205;28;20242;-82
2022/01/27 08:30:51;;;;;;;34.70;21.92;;;4.20;99.90;;;;;;5025480;28;20211;-82
2022/01/27 08:33:20;;;;;;;38.33;21.88;;;4.20;99.90;;;;;;5024379;28;20270;-82
2022/01/27 08:35:47;;;;;;;33.25;18.58;;;4.30;99.90;;;;;;5025782;28;20234;-79
2022/01/27 08:38:14;;;;;;;31.65;18.13;;;4.30;99.90;;;;;;5033193;28;20246;-80
2022/01/27 08:40:47;;;;;;;36.47;22.73;;;4.30;99.90;;;;;;5032322;28;20196;-79
2022/01/27 08:43:13;;;;;;;33.35;19.40;;;4.30;99.90;;;;;;5034595;28;20184;-80
2022/01/27 08:45:42;;;;;;;35.70;18.98;;;4.20;99.90;;;;;;5032005;28;20246;-80
2022/01/27 08:48:13;;;;;;;33.80;19.83;;;4.20;99.90;;;;;;5031017;28;20232;-80
2022/01/27 08:50:40;;;;;;;36.90;19.65;;;4.20;99.90;;;;;;5029605;28;20629;-81
2022/01/27 08:53:07;;;;;;;37.75;19.67;;;4.20;99.90;;;;;;5025948;28;20297;-78
2022/01/27 08:55:34;;;;;;;34.50;20.65;;;3.90;99.90;;;;;;5025908;28;20571;-82
2022/01/27 08:58:00;;;;;;;32.50;19.17;;;4.10;99.90;;;;;;5025920;28;20212;-80
2022/01/27 09:00:27;;;;;;;32.28;20.00;;;4.10;99.90;;;;;;5024848;28;20209;-82
2022/01/27 09:02:54;;;;;;;34.53;19.35;;;4.20;99.90;;;;;;5024677;28;20200;-82
2022/01/27 09:05:20;;;;;;;37.95;18.90;;;4.20;99.90;;;;;;5024343;28;20256;-83
2022/01/27 09:07:50;;;;;;;34.05;17.17;;;4.20;99.90;;;;;;5024189;28;20208;-84
2022/01/27 09:10:17;;;;;;;30.17;16.85;;;4.20;99.90;;;;;;5025463;28;20197;-82
2022/01/27 09:12:45;;;;;;;29.00;16.40;;;4.20;99.90;;;;;;5023989;28;20264;-84
2022/01/27 09:15:12;;;;;;;25.67;14.40;;;4.20;99.90;;;;;;5036678;28;20239;-80
2022/01/27 09:17:40;;;;;;;28.08;17.02;;;4.30;99.90;;;;;;5041457;28;20176;-81
2022/01/27 09:20:09;;;;;;;29.23;16.95;;;4.20;99.90;;;;;;5041311;28;20228;-82
2022/01/27 09:22:36;;;;;;;29.58;16.38;;;4.30;99.90;;;;;;5036334;28;20197;-82
2022/01/27 09:25:13;;;;;;;29.25;14.80;;;4.30;99.90;;;;;;5022918;28;20231;-82
2022/01/27 09:27:42;;;;;;;29.13;16.33;;;4.20;99.90;;;;;;5022709;28;20731;-82
2022/01/27 09:30:10;;;;;;;27.27;13.65;;;4.20;99.90;;;;;;5022380;28;20266;-82
2022/01/27 09:32:37;;;;;;;25.13;15.25;;;4.20;99.90;;;;;;5023165;28;20229;-81
2022/01/27 09:35:04;;;;;;;22.83;14.80;;;4.20;99.90;;;;;;5023090;28;20228;-81
2022/01/27 09:37:30;;;;;;;25.02;13.38;;;4.10;99.90;;;;;;5025003;28;20208;-83
2022/01/27 09:39:57;;;;;;;26.35;13.60;;;4.20;99.90;;;;;;5031047;28;20204;-82
2022/01/27 09:42:28;;;;;;;24.95;14.52;;;4.10;99.90;;;;;;5032033;28;20227;-83
2022/01/27 09:44:55;;;;;;;23.83;14.45;;;4.20;99.90;;;;;;5030313;28;20563;-81
2022/01/27 09:47:29;;;;;;;27.33;14.13;;;4.20;99.90;;;;;;5025483;28;20192;-81
2022/01/27 09:50:06;;;;;;;23.73;13.95;;;4.10;99.90;;;;;;5026660;28;20196;-82
2022/01/27 09:52:33;;;;;;;20.77;13.25;;;4.10;99.90;;;;;;5026427;28;20276;-83
2022/01/27 09:55:00;;;;;;;28.33;14.90;;;4.00;99.90;;;;;;5026465;28;20225;-80
2022/01/27 09:57:28;;;;;;;27.02;13.65;;;4.00;99.90;;;;;;5031317;28;20247;-81
2022/01/27 09:59:54;;;;;;;27.80;15.60;;;3.90;99.90;;;;;;5031581;28;20204;-82
2022/01/27 10:02:22;;;;;;;30.10;15.10;;;4.00;99.90;;;;;;5029701;28;20197;-83
2022/01/27 10:04:51;;;;;;;25.55;15.20;;;4.10;99.90;;;;;;5031813;28;20204;-81
2022/01/27 10:07:20;;;;;;;22.88;15.25;;;3.90;99.90;;;;;;5032769;28;20193;-80
2022/01/27 10:09:57;;;;;;;23.55;14.15;;;3.70;99.90;;;;;;5039460;28;20212;-79
2022/01/27 10:12:31;;;;;;;31.80;15.82;;;3.80;99.90;;;;;;5035085;28;20220;-82
2022/01/27 10:15:00;;;;;;;27.90;16.13;;;3.90;99.90;;;;;;5027518;28;20246;-81
2022/01/27 10:17:28;;;;;;;33.90;16.58;;;3.90;99.90;;;;;;5038295;28;20220;-82
2022/01/27 10:19:57;;;;;;;34.05;17.05;;;3.80;99.90;;;;;;5035798;28;20200;-83
2022/01/27 10:22:24;;;;;;;27.40;15.38;;;3.80;99.90;;;;;;5028417;28;20226;-82
2022/01/27 10:25:01;;;;;;;26.08;15.98;;;3.40;99.90;;;;;;5026852;28;20204;-82
2022/01/27 10:27:34;;;;;;;31.70;16.45;;;3.70;99.90;;;;;;5033434;28;20251;-82
2022/01/27 10:30:36;;;;;;;27.73;16.20;;;4.00;99.90;;;;;;5028820;28;20192;-79
2022/01/27 10:32:55;;;;;;;31.77;17.02;;;3.70;99.90;;;;;;5028632;28;20228;-79
2022/01/27 10:35:25;;;;;;;38.90;17.83;;;3.70;99.90;;;;;;5029132;28;20256;-81
2022/01/27 10:37:53;;;;;;;31.67;16.83;;;3.70;99.90;;;;;;5025941;28;20626;-79
2022/01/27 10:40:26;;;;;;;31.92;16.55;;;3.60;99.90;;;;;;5025732;28;20200;-80
2022/01/27 10:43:07;;;;;;;34.92;16.80;;;3.70;99.90;;;;;;5028217;28;20184;-82
2022/01/27 10:45:34;;;;;;;35.13;17.27;;;3.60;99.90;;;;;;5029653;28;20239;-82
2022/01/27 10:48:08;;;;;;;40.40;18.63;;;3.60;99.90;;;;;;5025154;28;20238;-80
2022/01/27 10:50:56;;;;;;;29.80;16.98;;;3.70;99.90;;;;;;5028627;28;20231;-83
2022/01/27 10:53:24;;;;;;;30.75;18.40;;;3.70;99.90;;;;;;5026340;28;20212;-82
2022/01/27 10:56:05;;;;;;;40.13;18.95;;;3.60;99.90;;;;;;5023223;28;20785;-82
2022/01/27 10:58:37;;;;;;;37.63;19.17;;;3.70;99.90;;;;;;5021363;28;20200;-82
2022/01/27 11:01:04;;;;;;;35.35;16.88;;;3.80;99.90;;;;;;5022967;28;20193;-82
2022/01/27 11:03:30;;;;;;;36.33;18.13;;;3.70;99.90;;;;;;5024958;28;20254;-82
2022/01/27 11:06:08;;;;;;;31.08;16.67;;;3.70;99.90;;;;;;5031953;28;20719;-80
2022/01/27 11:08:36;;;;;;;33.83;17.45;;;3.70;99.90;;;;;;5029618;28;20189;-80
2022/01/27 11:11:05;;;;;;;42.03;19.45;;;3.70;99.90;;;;;;5029609;28;20204;-79
2022/01/27 11:13:35;;;;;;;42.47;20.30;;;3.80;99.90;;;;;;5030724;28;20226;-79
2022/01/27 11:16:03;;;;;;;39.75;19.55;;;3.80;99.90;;;;;;5031232;28;20224;-79
2022/01/27 11:18:30;;;;;;;38.42;18.02;;;3.80;99.90;;;;;;5030952;28;20208;-81
2022/01/27 11:21:03;;;;;;;37.28;18.55;;;3.90;99.90;;;;;;5026192;28;20208;-84
2022/01/27 11:24:03;;;;;;;34.05;18.73;;;3.90;99.90;;;;;;5019848;28;20260;-82
2022/01/27 11:26:31;;;;;;;39.53;17.90;;;4.00;99.90;;;;;;5018680;28;20275;-82
2022/01/27 11:29:00;;;;;;;30.77;18.25;;;3.90;99.90;;;;;;5022167;28;20201;-80
2022/01/27 11:31:55;;;;;;;29.17;16.30;;;4.00;99.90;;;;;;5024908;28;20239;-81
2022/01/27 11:34:22;;;;;;;37.03;17.55;;;3.90;99.90;;;;;;4997183;28;20267;-78
2022/01/27 11:37:03;;;;;;;31.15;16.73;;;3.90;99.90;;;;;;5027611;28;20224;-81
2022/01/27 11:39:50;;;;;;;28.02;17.63;;;3.90;99.90;;;;;;5023433;28;20204;-81
2022/01/27 11:42:21;;;;;;;33.88;17.05;;;3.90;99.90;;;;;;5022103;28;20208;-83
2022/01/27 11:44:49;;;;;;;36.45;17.98;;;4.10;99.90;;;;;;5023878;28;20189;-81
2022/01/27 11:47:19;;;;;;;33.45;18.50;;;3.90;99.90;;;;;;5023714;28;20243;-83
2022/01/27 11:49:56;;;;;;;29.20;17.08;;;3.90;99.90;;;;;;5021639;28;20208;-81
2022/01/27 11:52:27;;;;;;;32.28;16.35;;;3.90;99.90;;;;;;5020335;28;20188;-82
2022/01/27 11:54:56;;;;;;;26.27;16.27;;;3.70;99.90;;;;;;5020025;28;20197;-82
2022/01/27 11:57:44;;;;;;;30.15;16.02;;;3.90;99.90;;;;;;5018637;28;20204;-83
2022/01/27 12:00:15;;;;;;;28.58;16.13;;;4.00;99.90;;;;;;5013628;28;20254;-82
2022/01/27 12:03:12;;;;;;;36.50;17.90;;;4.00;99.90;;;;;;5019787;28;20603;-84
2022/01/27 12:05:41;;;;;;;34.38;16.60;;;4.00;99.90;;;;;;5019791;28;20224;-81
2022/01/27 12:08:24;;;;;;;28.10;17.40;;;4.00;99.90;;;;;;5021103;28;20573;-83
2022/01/27 12:10:55;;;;;;;34.63;17.00;;;4.00;99.90;;;;;;5023081;28;20214;-83
2022/01/27 12:13:58;;;;;;;31.75;17.08;;;4.00;99.90;;;;;;5020942;28;20208;-82
2022/01/27 12:16:40;;;;;;;29.63;16.15;;;4.00;99.90;;;;;;5021395;28;20315;-81
2022/01/27 12:19:09;;;;;;;29.58;16.67;;;4.10;99.90;;;;;;5021652;28;20200;-81
2022/01/27 12:21:39;;;;;;;32.60;16.33;;;4.00;99.90;;;;;;5022102;28;20226;-83
2022/01/27 12:24:18;;;;;;;31.27;16.48;;;4.00;99.90;;;;;;5021874;28;20299;-82
2022/01/27 12:26:46;;;;;;;31.52;16.92;;;4.10;99.90;;;;;;5021513;28;20220;-82
2022/01/27 12:29:20;;;;;;;33.22;17.20;;;3.90;99.90;;;;;;5028819;28;20207;-79
2022/01/27 12:31:50;;;;;;;33.38;17.60;;;4.30;99.90;;;;;;5031465;28;20199;-80
2022/01/27 12:34:17;;;;;;;31.17;16.15;;;4.10;99.90;;;;;;5035559;28;20243;-80
2022/01/27 12:36:54;;;;;;;27.95;16.33;;;4.00;99.90;;;;;;5034831;28;20235;-80
2022/01/27 12:39:21;;;;;;;37.42;16.83;;;4.00;99.90;;;;;;5027821;28;20188;-82
2022/01/27 12:41:48;;;;;;;29.42;15.60;;;4.00;99.90;;;;;;5022869;28;20251;-83
2022/01/27 12:44:15;;;;;;;31.38;17.40;;;4.00;99.90;;;;;;5024370;28;20223;-80
2022/01/27 12:47:13;;;;;;;31.17;16.40;;;4.10;99.90;;;;;;5032616;22;20779;-79
2022/01/27 12:49:43;;;;;;;29.00;16.23;;;4.20;99.90;;;;;;5016317;28;20196;-79
2022/01/27 12:52:12;;;;;;;36.20;17.45;;;4.10;99.90;;;;;;5017850;28;20193;-80
2022/01/27 12:54:40;;;;;;;35.78;18.20;;;4.20;99.90;;;;;;5017042;28;20224;-79
2022/01/27 12:57:09;;;;;;;31.23;16.52;;;4.10;99.90;;;;;;5017782;28;20228;-79
2022/01/27 12:59:38;;;;;;;24.40;14.65;;;4.20;99.90;;;;;;5017976;28;20207;-80
2022/01/27 13:02:07;;;;;;;30.88;17.45;;;4.20;99.90;;;;;;5018931;28;20676;-80
2022/01/27 13:04:36;;;;;;;29.83;17.73;;;4.20;99.90;;;;;;5018849;28;20236;-79
2022/01/27 13:07:04;;;;;;;29.40;17.05;;;4.20;99.90;;;;;;5018387;28;20262;-80
2022/01/27 13:09:33;;;;;;;39.83;18.48;;;4.20;99.90;;;;;;5019733;28;20204;-80